createdAt,value
2023-01-29T00:01:23.263Z,0.67
2023-01-29T00:06:26.311Z,0.69
2023-01-29T00:11:28.145Z,0.65
2023-01-29T00:16:29.718Z,0.69
2023-01-29T00:21:32.243Z,0.64
2023-01-29T00:26:33.744Z,0.65
2023-01-29T00:31:35.336Z,0.68
2023-01-29T00:36:36.857Z,0.65
2023-01-29T00:42:00.176Z,0.65
2023-01-29T00:47:02.126Z,0.66
2023-01-29T00:52:22.359Z,0.67
2023-01-29T00:57:26.122Z,0.68
2023-01-29T01:02:47.156Z,0.63
2023-01-29T01:07:51.421Z,0.59
2023-01-29T01:12:58.733Z,0.54
2023-01-29T01:18:01.909Z,0.53
2023-01-29T01:23:03.547Z,0.59
2023-01-29T01:28:05.111Z,0.57
2023-01-29T01:33:06.557Z,0.59
2023-01-29T01:38:08.036Z,0.61
2023-01-29T01:43:10.166Z,0.59
2023-01-29T01:48:17.375Z,0.56
2023-01-29T01:53:27.016Z,0.52
2023-01-29T01:58:35.077Z,0.51
2023-01-29T02:04:04.035Z,0.42
2023-01-29T02:09:30.171Z,0.35
2023-01-29T02:14:32.160Z,0.30
2023-01-29T02:19:47.318Z,0.25
2023-01-29T02:25:15.907Z,0.36
2023-01-29T02:30:27.570Z,0.31
2023-01-29T02:35:39.013Z,0.32
2023-01-29T02:40:45.482Z,0.33
2023-01-29T02:45:54.215Z,0.27
2023-01-29T02:51:08.905Z,0.37
2023-01-29T02:56:16.329Z,0.33
2023-01-29T03:01:23.401Z,0.32
2023-01-29T03:06:33.108Z,0.29
2023-01-29T03:11:41.424Z,0.27
2023-01-29T03:16:49.348Z,0.24
2023-01-29T03:21:59.534Z,0.25
2023-01-29T03:27:22.702Z,0.30
2023-01-29T03:32:28.808Z,0.30
2023-01-29T03:37:37.646Z,0.38
2023-01-29T03:42:44.821Z,0.31
2023-01-29T03:47:56.606Z,0.35
2023-01-29T03:53:20.880Z,0.42
2023-01-29T03:58:34.942Z,0.32
2023-01-29T04:03:44.714Z,0.34
2023-01-29T04:08:51.376Z,0.39
2023-01-29T04:13:53.559Z,0.41
2023-01-29T04:18:55.549Z,0.37
2023-01-29T04:23:57.031Z,0.40
2023-01-29T04:29:17.496Z,0.39
2023-01-29T04:34:28.347Z,0.36
2023-01-29T04:39:56.434Z,0.41
2023-01-29T04:45:19.037Z,0.39
2023-01-29T04:50:35.435Z,0.42
2023-01-29T04:55:52.663Z,0.43
2023-01-29T05:00:54.840Z,0.43
2023-01-29T05:05:58.459Z,0.45
2023-01-29T05:11:01.131Z,0.47
2023-01-29T05:16:14.486Z,0.49
2023-01-29T05:21:16.318Z,0.50
2023-01-29T05:26:36.365Z,0.52
2023-01-29T05:31:37.848Z,0.53
2023-01-29T05:36:39.322Z,0.58
2023-01-29T05:41:40.860Z,0.59
2023-01-29T05:46:42.320Z,0.58
2023-01-29T05:51:44.384Z,0.56
2023-01-29T05:56:45.852Z,0.58
2023-01-29T06:01:47.280Z,0.57
2023-01-29T06:06:48.731Z,0.61
2023-01-29T06:11:50.186Z,0.61
2023-01-29T06:16:51.575Z,0.66
2023-01-29T06:21:53.190Z,0.65
2023-01-29T06:26:54.682Z,0.76
2023-01-29T06:31:56.252Z,0.76
2023-01-29T06:36:57.762Z,0.74
2023-01-29T06:41:59.199Z,0.76
2023-01-29T06:47:00.864Z,0.82
2023-01-29T06:52:02.261Z,0.85
2023-01-29T06:57:03.692Z,0.80
2023-01-29T07:02:05.178Z,0.79
2023-01-29T07:07:12.762Z,0.79
2023-01-29T07:12:14.223Z,0.82
2023-01-29T07:17:15.761Z,0.88
2023-01-29T07:22:17.167Z,0.91
2023-01-29T07:27:18.596Z,0.96
2023-01-29T07:32:20.030Z,0.93
2023-01-29T07:37:21.448Z,0.97
2023-01-29T07:42:23.558Z,1.01
2023-01-29T07:47:24.987Z,1.04
2023-01-29T07:52:26.616Z,1.09
2023-01-29T07:57:28.149Z,1.12
2023-01-29T08:02:29.658Z,1.09
2023-01-29T08:07:31.225Z,1.16
2023-01-29T08:12:32.663Z,1.23
2023-01-29T08:17:34.797Z,1.26
2023-01-29T08:22:36.304Z,1.28
2023-01-29T08:27:37.809Z,1.30
2023-01-29T08:32:39.235Z,1.36
2023-01-29T08:37:40.838Z,1.38
2023-01-29T08:42:42.414Z,1.40
2023-01-29T08:47:48.313Z,1.42
2023-01-29T08:52:49.750Z,1.45
2023-01-29T08:57:51.491Z,1.50
2023-01-29T09:02:53.007Z,1.55
2023-01-29T09:07:56.839Z,1.60
2023-01-29T09:12:58.498Z,1.61
2023-01-29T09:18:04.055Z,1.67
2023-01-29T09:23:07.624Z,1.72
2023-01-29T09:28:09.077Z,1.74
2023-01-29T09:33:10.542Z,1.75
2023-01-29T09:38:12.004Z,1.77
2023-01-29T09:43:18.674Z,1.81
2023-01-29T09:48:23.456Z,1.84
2023-01-29T09:53:32.626Z,1.85
2023-01-29T09:58:38.547Z,1.88
2023-01-29T10:03:59.698Z,1.93
2023-01-29T10:09:39.130Z,1.97
2023-01-29T10:15:02.966Z,1.97
2023-01-29T10:20:30.600Z,2.05
2023-01-29T10:25:37.285Z,2.11
2023-01-29T10:30:44.264Z,2.09
2023-01-29T10:35:53.394Z,2.10
2023-01-29T10:41:10.946Z,2.13
2023-01-29T10:46:45.346Z,2.15
2023-01-29T10:51:52.831Z,2.16
2023-01-29T10:57:20.539Z,2.19
2023-01-29T11:02:22.704Z,2.27
2023-01-29T11:07:25.183Z,2.29
2023-01-29T11:12:32.103Z,2.32
2023-01-29T11:17:33.599Z,2.35
2023-01-29T11:22:35.819Z,2.44
2023-01-29T11:27:50.372Z,2.41
2023-01-29T11:33:20.059Z,2.43
2023-01-29T11:38:27.149Z,2.45
2023-01-29T11:43:34.123Z,2.49
2023-01-29T11:48:42.219Z,2.55
2023-01-29T11:53:46.218Z,2.63
2023-01-29T11:58:50.520Z,2.63
2023-01-29T12:03:54.430Z,2.64
2023-01-29T12:08:58.609Z,2.64
2023-01-29T12:14:06.658Z,2.65
2023-01-29T12:19:27.467Z,2.71
2023-01-29T12:24:36.297Z,2.73
2023-01-29T12:29:49.538Z,2.73
2023-01-29T12:34:59.056Z,2.78
2023-01-29T12:40:04.039Z,2.78
2023-01-29T12:45:11.056Z,2.76
2023-01-29T12:50:30.084Z,2.76
2023-01-29T12:55:34.339Z,2.82
2023-01-29T13:00:42.088Z,2.84
2023-01-29T13:06:11.192Z,2.85
2023-01-29T13:11:22.396Z,2.83
2023-01-29T13:16:31.917Z,2.74
2023-01-29T13:21:42.315Z,2.81
2023-01-29T13:26:48.982Z,2.78
2023-01-29T13:32:03.909Z,2.78
2023-01-29T13:37:31.733Z,2.77
2023-01-29T13:42:47.175Z,2.77
2023-01-29T13:47:51.022Z,2.77
2023-01-29T13:52:56.438Z,2.82
2023-01-29T13:58:02.310Z,2.87
2023-01-29T14:03:04.797Z,2.92
2023-01-29T14:08:35.795Z,2.97
2023-01-29T14:13:37.288Z,2.94
2023-01-29T14:18:47.757Z,2.95
2023-01-29T14:24:08.018Z,2.98
2023-01-29T14:29:18.803Z,2.98
2023-01-29T14:34:28.123Z,2.95
2023-01-29T14:39:44.365Z,2.98
2023-01-29T14:44:45.837Z,2.97
2023-01-29T14:49:53.823Z,2.95
2023-01-29T14:55:01.889Z,2.98
2023-01-29T15:00:13.498Z,2.93
2023-01-29T15:05:19.518Z,2.91
2023-01-29T15:10:33.308Z,2.93
2023-01-29T15:15:50.676Z,2.93
2023-01-29T15:21:05.830Z,2.93
2023-01-29T15:26:11.870Z,2.92
2023-01-29T15:31:18.617Z,2.93
2023-01-29T15:36:28.134Z,2.89
2023-01-29T15:41:29.500Z,2.87
2023-01-29T15:46:36.417Z,2.84
2023-01-29T15:51:38.676Z,2.85
2023-01-29T15:56:54.172Z,2.81
2023-01-29T16:01:56.981Z,2.84
2023-01-29T16:07:00.485Z,2.81
2023-01-29T16:12:02.244Z,2.79
2023-01-29T16:17:22.650Z,2.78
2023-01-29T16:22:26.730Z,2.69
2023-01-29T16:27:29.254Z,2.64
2023-01-29T16:32:31.551Z,2.63
2023-01-29T16:37:36.385Z,2.58
2023-01-29T16:42:39.588Z,2.55
2023-01-29T16:47:41.571Z,2.47
2023-01-29T16:53:01.568Z,2.41
2023-01-29T16:58:10.735Z,2.33
2023-01-29T17:03:14.708Z,2.28
2023-01-29T17:08:27.042Z,2.23
2023-01-29T17:13:42.744Z,2.22
2023-01-29T17:18:45.037Z,2.25
2023-01-29T17:23:46.559Z,2.28
2023-01-29T17:28:52.333Z,2.31
2023-01-29T17:33:56.141Z,2.27
2023-01-29T17:39:00.355Z,2.30
2023-01-29T17:44:01.783Z,2.29
2023-01-29T17:49:09.798Z,2.32
2023-01-29T17:54:11.260Z,2.32
2023-01-29T17:59:19.788Z,2.32
2023-01-29T18:04:21.749Z,2.38
2023-01-29T18:09:23.424Z,2.44
2023-01-29T18:14:25.881Z,2.47
2023-01-29T18:19:31.255Z,2.49
2023-01-29T18:24:33.984Z,2.52
2023-01-29T18:29:35.585Z,2.54
2023-01-29T18:34:38.710Z,2.56
2023-01-29T18:39:40.142Z,2.58
2023-01-29T18:44:41.741Z,2.62
2023-01-29T18:49:43.188Z,2.62
2023-01-29T18:54:44.606Z,2.70
2023-01-29T18:59:47.388Z,2.65
2023-01-29T19:04:52.051Z,2.76
2023-01-29T19:09:54.061Z,2.71
2023-01-29T19:14:57.870Z,2.71
2023-01-29T19:20:02.423Z,2.70
2023-01-29T19:25:04.790Z,2.73
2023-01-29T19:30:06.977Z,2.74
2023-01-29T19:35:08.516Z,2.76
2023-01-29T19:40:11.659Z,2.80
2023-01-29T19:45:14.745Z,2.79
2023-01-29T19:50:16.815Z,2.81
2023-01-29T19:55:19.964Z,2.84
2023-01-29T20:00:21.933Z,2.83
2023-01-29T20:05:24.065Z,2.88
2023-01-29T20:10:27.569Z,2.91
2023-01-29T20:15:29.154Z,2.91
2023-01-29T20:20:32.689Z,2.94
2023-01-29T20:25:36.133Z,2.90
2023-01-29T20:30:38.571Z,2.96
2023-01-29T20:35:40.339Z,2.93
2023-01-29T20:40:49.831Z,2.97
2023-01-29T20:45:51.347Z,3.01
2023-01-29T20:50:54.055Z,3.02
2023-01-29T20:55:55.509Z,3.04
2023-01-29T21:00:57.045Z,3.02
2023-01-29T21:05:59.212Z,3.03
2023-01-29T21:11:01.571Z,3.05
2023-01-29T21:16:04.914Z,3.07
2023-01-29T21:21:07.346Z,3.13
2023-01-29T21:26:09.132Z,3.12
2023-01-29T21:31:14.719Z,3.12
2023-01-29T21:36:16.236Z,3.18
2023-01-29T21:41:17.899Z,3.26
2023-01-29T21:46:19.407Z,3.27
2023-01-29T21:51:23.316Z,3.28
2023-01-29T21:56:24.813Z,3.30
2023-01-29T22:01:37.360Z,3.34
2023-01-29T22:06:39.973Z,3.33
2023-01-29T22:11:41.714Z,3.34
2023-01-29T22:16:43.250Z,3.29
2023-01-29T22:21:44.924Z,3.32
2023-01-29T22:26:48.494Z,3.30
2023-01-29T22:31:52.351Z,3.33
2023-01-29T22:36:56.481Z,3.34
2023-01-29T22:41:58.087Z,3.35
2023-01-29T22:47:07.325Z,3.40
2023-01-29T22:52:13.913Z,3.40
2023-01-29T22:57:16.809Z,3.44
2023-01-29T23:02:18.284Z,3.43
2023-01-29T23:07:19.718Z,3.51
2023-01-29T23:12:21.192Z,3.52
2023-01-29T23:17:22.685Z,3.57
2023-01-29T23:22:25.167Z,3.63
2023-01-29T23:27:26.586Z,3.68
2023-01-29T23:32:28.263Z,3.69
2023-01-29T23:37:29.685Z,3.77
2023-01-29T23:42:31.276Z,3.84
2023-01-29T23:47:32.890Z,3.88
2023-01-29T23:52:36.627Z,3.91
2023-01-29T23:57:38.228Z,3.95
